sensor_id;sensor_type;location;lat;lon;timestamp;P1;durP1;ratioP1;P2;durP2;ratioP2
52124;SDS011;38119;52.710;6.398;2023-12-29T00:01:55;13.05;;;2.95;;
52124;SDS011;38119;52.710;6.398;2023-12-29T00:04:21;11.75;;;2.40;;
52124;SDS011;38119;52.710;6.398;2023-12-29T00:06:47;11.73;;;2.50;;
52124;SDS011;38119;52.710;6.398;2023-12-29T00:09:14;11.73;;;2.42;;
52124;SDS011;38119;52.710;6.398;2023-12-29T00:11:40;12.80;;;3.08;;
52124;SDS011;38119;52.710;6.398;2023-12-29T00:14:05;10.25;;;2.28;;
52124;SDS011;38119;52.710;6.398;2023-12-29T00:16:31;13.27;;;2.75;;
52124;SDS011;38119;52.710;6.398;2023-12-29T00:18:56;11.43;;;2.72;;
52124;SDS011;38119;52.710;6.398;2023-12-29T00:21:22;13.50;;;2.60;;
52124;SDS011;38119;52.710;6.398;2023-12-29T00:23:48;12.90;;;2.42;;
52124;SDS011;38119;52.710;6.398;2023-12-29T00:26:16;13.20;;;2.72;;
52124;SDS011;38119;52.710;6.398;2023-12-29T00:28:43;12.65;;;2.30;;
52124;SDS011;38119;52.710;6.398;2023-12-29T00:31:09;10.32;;;2.20;;
52124;SDS011;38119;52.710;6.398;2023-12-29T00:33:40;13.02;;;2.65;;
52124;SDS011;38119;52.710;6.398;2023-12-29T00:36:06;13.75;;;2.63;;
52124;SDS011;38119;52.710;6.398;2023-12-29T00:38:32;11.35;;;2.80;;
52124;SDS011;38119;52.710;6.398;2023-12-29T00:40:58;13.50;;;2.78;;
52124;SDS011;38119;52.710;6.398;2023-12-29T00:43:23;14.85;;;2.97;;
52124;SDS011;38119;52.710;6.398;2023-12-29T00:45:49;18.77;;;3.58;;
52124;SDS011;38119;52.710;6.398;2023-12-29T00:48:15;14.20;;;2.70;;
52124;SDS011;38119;52.710;6.398;2023-12-29T00:50:40;16.35;;;3.65;;
52124;SDS011;38119;52.710;6.398;2023-12-29T00:53:06;18.27;;;3.65;;
52124;SDS011;38119;52.710;6.398;2023-12-29T00:55:31;17.25;;;3.83;;
52124;SDS011;38119;52.710;6.398;2023-12-29T00:57:57;14.85;;;3.17;;
52124;SDS011;38119;52.710;6.398;2023-12-29T01:00:22;12.40;;;3.15;;
52124;SDS011;38119;52.710;6.398;2023-12-29T01:02:48;16.52;;;4.07;;
52124;SDS011;38119;52.710;6.398;2023-12-29T01:05:16;15.40;;;2.90;;
52124;SDS011;38119;52.710;6.398;2023-12-29T01:07:42;16.83;;;3.55;;
52124;SDS011;38119;52.710;6.398;2023-12-29T01:10:08;17.80;;;4.10;;
52124;SDS011;38119;52.710;6.398;2023-12-29T01:12:34;14.50;;;3.03;;
52124;SDS011;38119;52.710;6.398;2023-12-29T01:15:00;15.02;;;3.33;;
52124;SDS011;38119;52.710;6.398;2023-12-29T01:17:25;13.93;;;3.55;;
52124;SDS011;38119;52.710;6.398;2023-12-29T01:19:53;16.48;;;3.28;;
52124;SDS011;38119;52.710;6.398;2023-12-29T01:22:19;13.60;;;3.15;;
52124;SDS011;38119;52.710;6.398;2023-12-29T01:24:44;14.18;;;2.95;;
52124;SDS011;38119;52.710;6.398;2023-12-29T01:27:10;11.43;;;2.90;;
52124;SDS011;38119;52.710;6.398;2023-12-29T01:29:35;15.85;;;3.25;;
52124;SDS011;38119;52.710;6.398;2023-12-29T01:32:01;11.65;;;3.03;;
52124;SDS011;38119;52.710;6.398;2023-12-29T01:34:28;15.43;;;3.45;;
52124;SDS011;38119;52.710;6.398;2023-12-29T01:36:57;17.88;;;3.08;;
52124;SDS011;38119;52.710;6.398;2023-12-29T01:39:23;11.60;;;2.67;;
52124;SDS011;38119;52.710;6.398;2023-12-29T01:41:49;13.65;;;2.75;;
52124;SDS011;38119;52.710;6.398;2023-12-29T01:46:51;10.50;;;2.88;;
52124;SDS011;38119;52.710;6.398;2023-12-29T01:49:18;15.32;;;2.95;;
52124;SDS011;38119;52.710;6.398;2023-12-29T01:51:46;13.32;;;2.70;;
52124;SDS011;38119;52.710;6.398;2023-12-29T01:54:23;11.85;;;3.17;;
52124;SDS011;38119;52.710;6.398;2023-12-29T01:56:52;11.45;;;2.72;;
52124;SDS011;38119;52.710;6.398;2023-12-29T01:59:23;18.02;;;3.25;;
52124;SDS011;38119;52.710;6.398;2023-12-29T02:01:50;18.25;;;3.05;;
52124;SDS011;38119;52.710;6.398;2023-12-29T02:04:16;16.17;;;3.17;;
52124;SDS011;38119;52.710;6.398;2023-12-29T02:06:43;17.50;;;3.08;;
52124;SDS011;38119;52.710;6.398;2023-12-29T02:09:08;19.08;;;2.80;;
52124;SDS011;38119;52.710;6.398;2023-12-29T02:11:34;11.90;;;2.92;;
52124;SDS011;38119;52.710;6.398;2023-12-29T02:14:00;14.02;;;2.95;;
52124;SDS011;38119;52.710;6.398;2023-12-29T02:16:33;15.77;;;3.15;;
52124;SDS011;38119;52.710;6.398;2023-12-29T02:19:08;12.05;;;2.97;;
52124;SDS011;38119;52.710;6.398;2023-12-29T02:21:55;13.23;;;2.90;;
52124;SDS011;38119;52.710;6.398;2023-12-29T02:24:21;9.80;;;2.50;;
52124;SDS011;38119;52.710;6.398;2023-12-29T02:26:47;14.10;;;3.08;;
52124;SDS011;38119;52.710;6.398;2023-12-29T02:29:18;12.63;;;3.65;;
52124;SDS011;38119;52.710;6.398;2023-12-29T02:31:45;10.55;;;2.50;;
52124;SDS011;38119;52.710;6.398;2023-12-29T02:34:16;16.40;;;3.00;;
52124;SDS011;38119;52.710;6.398;2023-12-29T02:36:44;10.10;;;2.33;;
52124;SDS011;38119;52.710;6.398;2023-12-29T02:39:11;13.07;;;3.05;;
52124;SDS011;38119;52.710;6.398;2023-12-29T02:41:37;10.93;;;2.78;;
52124;SDS011;38119;52.710;6.398;2023-12-29T02:44:04;17.17;;;2.92;;
52124;SDS011;38119;52.710;6.398;2023-12-29T02:46:29;14.50;;;2.72;;
52124;SDS011;38119;52.710;6.398;2023-12-29T02:48:55;14.80;;;2.72;;
52124;SDS011;38119;52.710;6.398;2023-12-29T02:51:21;9.98;;;2.47;;
52124;SDS011;38119;52.710;6.398;2023-12-29T02:53:46;17.23;;;3.20;;
52124;SDS011;38119;52.710;6.398;2023-12-29T02:56:14;17.98;;;3.38;;
52124;SDS011;38119;52.710;6.398;2023-12-29T02:58:39;11.20;;;3.15;;
52124;SDS011;38119;52.710;6.398;2023-12-29T03:01:05;10.57;;;3.00;;
52124;SDS011;38119;52.710;6.398;2023-12-29T03:03:30;14.20;;;3.05;;
52124;SDS011;38119;52.710;6.398;2023-12-29T03:05:56;18.33;;;4.05;;
52124;SDS011;38119;52.710;6.398;2023-12-29T03:08:21;11.82;;;3.63;;
52124;SDS011;38119;52.710;6.398;2023-12-29T03:10:47;13.70;;;3.20;;
52124;SDS011;38119;52.710;6.398;2023-12-29T03:13:13;17.05;;;3.55;;
52124;SDS011;38119;52.710;6.398;2023-12-29T03:15:38;13.15;;;2.75;;
52124;SDS011;38119;52.710;6.398;2023-12-29T03:18:04;13.75;;;2.63;;
52124;SDS011;38119;52.710;6.398;2023-12-29T03:20:29;11.07;;;2.92;;
52124;SDS011;38119;52.710;6.398;2023-12-29T03:22:55;13.52;;;3.05;;
52124;SDS011;38119;52.710;6.398;2023-12-29T03:25:21;12.85;;;3.58;;
52124;SDS011;38119;52.710;6.398;2023-12-29T03:27:46;10.77;;;3.03;;
52124;SDS011;38119;52.710;6.398;2023-12-29T03:30:12;18.52;;;3.13;;
52124;SDS011;38119;52.710;6.398;2023-12-29T03:32:38;9.85;;;2.70;;
52124;SDS011;38119;52.710;6.398;2023-12-29T03:35:03;13.23;;;2.70;;
52124;SDS011;38119;52.710;6.398;2023-12-29T03:37:29;11.63;;;2.65;;
52124;SDS011;38119;52.710;6.398;2023-12-29T03:39:55;11.48;;;3.15;;
52124;SDS011;38119;52.710;6.398;2023-12-29T03:42:20;15.50;;;2.95;;
52124;SDS011;38119;52.710;6.398;2023-12-29T03:44:46;18.90;;;3.80;;
52124;SDS011;38119;52.710;6.398;2023-12-29T03:47:11;17.92;;;3.50;;
52124;SDS011;38119;52.710;6.398;2023-12-29T03:49:37;15.98;;;3.20;;
52124;SDS011;38119;52.710;6.398;2023-12-29T03:52:03;16.17;;;3.67;;
52124;SDS011;38119;52.710;6.398;2023-12-29T03:54:28;15.02;;;3.70;;
52124;SDS011;38119;52.710;6.398;2023-12-29T03:56:54;12.07;;;3.00;;
52124;SDS011;38119;52.710;6.398;2023-12-29T03:59:19;15.82;;;3.42;;
52124;SDS011;38119;52.710;6.398;2023-12-29T04:01:45;17.42;;;3.60;;
52124;SDS011;38119;52.710;6.398;2023-12-29T04:04:10;13.45;;;3.63;;
52124;SDS011;38119;52.710;6.398;2023-12-29T04:06:36;18.67;;;3.33;;
52124;SDS011;38119;52.710;6.398;2023-12-29T04:09:01;17.90;;;3.83;;
52124;SDS011;38119;52.710;6.398;2023-12-29T04:11:28;19.92;;;4.13;;
52124;SDS011;38119;52.710;6.398;2023-12-29T04:13:53;20.83;;;3.75;;
52124;SDS011;38119;52.710;6.398;2023-12-29T04:16:19;19.23;;;4.13;;
52124;SDS011;38119;52.710;6.398;2023-12-29T04:18:45;20.88;;;3.72;;
52124;SDS011;38119;52.710;6.398;2023-12-29T04:21:14;16.95;;;4.05;;
52124;SDS011;38119;52.710;6.398;2023-12-29T04:23:40;19.17;;;3.65;;
52124;SDS011;38119;52.710;6.398;2023-12-29T04:26:07;16.52;;;3.40;;
52124;SDS011;38119;52.710;6.398;2023-12-29T04:28:32;16.05;;;3.08;;
52124;SDS011;38119;52.710;6.398;2023-12-29T04:30:58;11.50;;;2.80;;
52124;SDS011;38119;52.710;6.398;2023-12-29T04:33:23;19.90;;;3.30;;
52124;SDS011;38119;52.710;6.398;2023-12-29T04:35:49;15.38;;;3.40;;
52124;SDS011;38119;52.710;6.398;2023-12-29T04:38:15;15.27;;;2.88;;
52124;SDS011;38119;52.710;6.398;2023-12-29T04:40:43;20.25;;;3.47;;
52124;SDS011;38119;52.710;6.398;2023-12-29T04:43:08;20.50;;;3.95;;
52124;SDS011;38119;52.710;6.398;2023-12-29T04:45:34;18.48;;;3.33;;
52124;SDS011;38119;52.710;6.398;2023-12-29T04:48:00;15.38;;;2.80;;
52124;SDS011;38119;52.710;6.398;2023-12-29T04:50:25;19.02;;;2.90;;
52124;SDS011;38119;52.710;6.398;2023-12-29T04:52:51;17.13;;;3.15;;
52124;SDS011;38119;52.710;6.398;2023-12-29T04:55:16;20.33;;;4.18;;
52124;SDS011;38119;52.710;6.398;2023-12-29T04:57:42;26.58;;;4.15;;
52124;SDS011;38119;52.710;6.398;2023-12-29T05:00:08;21.13;;;3.45;;
52124;SDS011;38119;52.710;6.398;2023-12-29T05:02:33;16.90;;;3.63;;
52124;SDS011;38119;52.710;6.398;2023-12-29T05:04:59;24.45;;;3.85;;
52124;SDS011;38119;52.710;6.398;2023-12-29T05:07:26;20.20;;;4.53;;
52124;SDS011;38119;52.710;6.398;2023-12-29T05:09:52;19.73;;;4.78;;
52124;SDS011;38119;52.710;6.398;2023-12-29T05:12:17;26.88;;;4.18;;
52124;SDS011;38119;52.710;6.398;2023-12-29T05:14:43;18.42;;;3.72;;
52124;SDS011;38119;52.710;6.398;2023-12-29T05:17:09;27.05;;;5.50;;
52124;SDS011;38119;52.710;6.398;2023-12-29T05:19:34;19.63;;;4.10;;
52124;SDS011;38119;52.710;6.398;2023-12-29T05:22:00;23.70;;;3.65;;
52124;SDS011;38119;52.710;6.398;2023-12-29T05:24:25;24.30;;;3.75;;
52124;SDS011;38119;52.710;6.398;2023-12-29T05:26:51;22.20;;;4.65;;
52124;SDS011;38119;52.710;6.398;2023-12-29T05:29:16;18.60;;;3.85;;
52124;SDS011;38119;52.710;6.398;2023-12-29T05:31:42;24.90;;;4.30;;
52124;SDS011;38119;52.710;6.398;2023-12-29T05:34:07;25.92;;;4.40;;
52124;SDS011;38119;52.710;6.398;2023-12-29T05:36:36;21.42;;;4.00;;
52124;SDS011;38119;52.710;6.398;2023-12-29T05:39:02;24.70;;;3.90;;
52124;SDS011;38119;52.710;6.398;2023-12-29T05:41:28;20.90;;;3.60;;
52124;SDS011;38119;52.710;6.398;2023-12-29T05:43:54;19.95;;;4.00;;
52124;SDS011;38119;52.710;6.398;2023-12-29T05:46:22;24.42;;;4.65;;
52124;SDS011;38119;52.710;6.398;2023-12-29T05:48:47;16.40;;;3.33;;
52124;SDS011;38119;52.710;6.398;2023-12-29T05:51:13;23.83;;;4.15;;
52124;SDS011;38119;52.710;6.398;2023-12-29T05:53:42;23.67;;;4.32;;
52124;SDS011;38119;52.710;6.398;2023-12-29T05:56:12;26.27;;;4.38;;
52124;SDS011;38119;52.710;6.398;2023-12-29T05:58:42;23.85;;;4.07;;
52124;SDS011;38119;52.710;6.398;2023-12-29T06:01:08;23.52;;;4.07;;
52124;SDS011;38119;52.710;6.398;2023-12-29T06:03:34;24.90;;;4.35;;
52124;SDS011;38119;52.710;6.398;2023-12-29T06:06:00;29.08;;;3.83;;
52124;SDS011;38119;52.710;6.398;2023-12-29T06:08:25;26.38;;;4.72;;
52124;SDS011;38119;52.710;6.398;2023-12-29T06:10:51;28.15;;;4.63;;
52124;SDS011;38119;52.710;6.398;2023-12-29T06:13:16;24.50;;;5.15;;
52124;SDS011;38119;52.710;6.398;2023-12-29T06:15:42;22.08;;;5.10;;
52124;SDS011;38119;52.710;6.398;2023-12-29T06:18:08;26.23;;;4.55;;
52124;SDS011;38119;52.710;6.398;2023-12-29T06:20:33;21.38;;;4.20;;
52124;SDS011;38119;52.710;6.398;2023-12-29T06:22:59;25.17;;;4.53;;
52124;SDS011;38119;52.710;6.398;2023-12-29T06:25:24;28.63;;;4.47;;
52124;SDS011;38119;52.710;6.398;2023-12-29T06:27:50;23.63;;;4.28;;
52124;SDS011;38119;52.710;6.398;2023-12-29T06:30:16;27.30;;;5.07;;
52124;SDS011;38119;52.710;6.398;2023-12-29T06:32:41;26.58;;;4.47;;
52124;SDS011;38119;52.710;6.398;2023-12-29T06:35:10;34.65;;;5.07;;
52124;SDS011;38119;52.710;6.398;2023-12-29T06:37:38;27.50;;;4.55;;
52124;SDS011;38119;52.710;6.398;2023-12-29T06:40:04;26.50;;;3.97;;
52124;SDS011;38119;52.710;6.398;2023-12-29T06:42:31;26.33;;;4.55;;
52124;SDS011;38119;52.710;6.398;2023-12-29T06:44:56;26.58;;;4.53;;
52124;SDS011;38119;52.710;6.398;2023-12-29T06:47:22;34.70;;;5.57;;
52124;SDS011;38119;52.710;6.398;2023-12-29T06:49:47;27.48;;;4.72;;
52124;SDS011;38119;52.710;6.398;2023-12-29T06:52:13;21.08;;;3.90;;
52124;SDS011;38119;52.710;6.398;2023-12-29T06:54:39;32.30;;;4.82;;
52124;SDS011;38119;52.710;6.398;2023-12-29T06:57:04;27.33;;;4.80;;
52124;SDS011;38119;52.710;6.398;2023-12-29T06:59:30;31.45;;;5.38;;
52124;SDS011;38119;52.710;6.398;2023-12-29T07:01:56;29.42;;;4.22;;
52124;SDS011;38119;52.710;6.398;2023-12-29T07:04:21;27.88;;;5.30;;
52124;SDS011;38119;52.710;6.398;2023-12-29T07:06:47;21.90;;;4.53;;
52124;SDS011;38119;52.710;6.398;2023-12-29T07:09:12;28.75;;;4.93;;
52124;SDS011;38119;52.710;6.398;2023-12-29T07:11:38;32.35;;;5.15;;
52124;SDS011;38119;52.710;6.398;2023-12-29T07:14:04;26.83;;;4.93;;
52124;SDS011;38119;52.710;6.398;2023-12-29T07:16:29;27.80;;;5.68;;
52124;SDS011;38119;52.710;6.398;2023-12-29T07:18:55;24.88;;;5.03;;
52124;SDS011;38119;52.710;6.398;2023-12-29T07:21:20;22.20;;;3.97;;
52124;SDS011;38119;52.710;6.398;2023-12-29T07:23:46;28.98;;;4.63;;
52124;SDS011;38119;52.710;6.398;2023-12-29T07:26:11;27.58;;;5.30;;
52124;SDS011;38119;52.710;6.398;2023-12-29T07:28:37;33.05;;;5.07;;
52124;SDS011;38119;52.710;6.398;2023-12-29T07:31:02;23.63;;;4.78;;
52124;SDS011;38119;52.710;6.398;2023-12-29T07:33:28;35.65;;;4.95;;
52124;SDS011;38119;52.710;6.398;2023-12-29T07:35:54;27.50;;;5.57;;
52124;SDS011;38119;52.710;6.398;2023-12-29T07:38:20;21.23;;;4.28;;
52124;SDS011;38119;52.710;6.398;2023-12-29T07:40:46;29.10;;;5.00;;
52124;SDS011;38119;52.710;6.398;2023-12-29T07:43:12;26.35;;;5.05;;
52124;SDS011;38119;52.710;6.398;2023-12-29T07:45:38;32.05;;;4.50;;
52124;SDS011;38119;52.710;6.398;2023-12-29T07:48:04;24.38;;;4.70;;
52124;SDS011;38119;52.710;6.398;2023-12-29T07:50:30;19.67;;;4.00;;
52124;SDS011;38119;52.710;6.398;2023-12-29T07:52:56;20.05;;;5.38;;
52124;SDS011;38119;52.710;6.398;2023-12-29T07:55:21;19.42;;;4.60;;
52124;SDS011;38119;52.710;6.398;2023-12-29T07:57:47;22.85;;;4.43;;
52124;SDS011;38119;52.710;6.398;2023-12-29T08:00:16;23.58;;;4.47;;
52124;SDS011;38119;52.710;6.398;2023-12-29T08:02:42;24.63;;;4.90;;
52124;SDS011;38119;52.710;6.398;2023-12-29T08:05:08;14.93;;;3.63;;
52124;SDS011;38119;52.710;6.398;2023-12-29T08:07:34;25.05;;;5.32;;
52124;SDS011;38119;52.710;6.398;2023-12-29T08:10:06;23.50;;;3.80;;
52124;SDS011;38119;52.710;6.398;2023-12-29T08:12:32;22.25;;;3.85;;
52124;SDS011;38119;52.710;6.398;2023-12-29T08:14:59;21.92;;;3.70;;
52124;SDS011;38119;52.710;6.398;2023-12-29T08:17:24;20.15;;;3.72;;
52124;SDS011;38119;52.710;6.398;2023-12-29T08:19:50;24.13;;;4.00;;
52124;SDS011;38119;52.710;6.398;2023-12-29T08:22:16;19.80;;;4.50;;
52124;SDS011;38119;52.710;6.398;2023-12-29T08:24:41;19.58;;;3.53;;
52124;SDS011;38119;52.710;6.398;2023-12-29T08:27:08;22.50;;;4.32;;
52124;SDS011;38119;52.710;6.398;2023-12-29T08:29:35;20.20;;;4.05;;
52124;SDS011;38119;52.710;6.398;2023-12-29T08:32:01;22.25;;;3.85;;
52124;SDS011;38119;52.710;6.398;2023-12-29T08:34:27;20.17;;;3.78;;
52124;SDS011;38119;52.710;6.398;2023-12-29T08:36:55;17.90;;;3.50;;
52124;SDS011;38119;52.710;6.398;2023-12-29T08:39:21;20.15;;;3.75;;
52124;SDS011;38119;52.710;6.398;2023-12-29T08:41:47;21.08;;;3.70;;
52124;SDS011;38119;52.710;6.398;2023-12-29T08:44:14;19.90;;;3.95;;
52124;SDS011;38119;52.710;6.398;2023-12-29T08:46:40;16.48;;;3.42;;
52124;SDS011;38119;52.710;6.398;2023-12-29T08:49:06;13.40;;;3.67;;
52124;SDS011;38119;52.710;6.398;2023-12-29T08:51:32;14.20;;;3.00;;
52124;SDS011;38119;52.710;6.398;2023-12-29T08:53:57;15.93;;;3.33;;
52124;SDS011;38119;52.710;6.398;2023-12-29T08:56:23;14.15;;;3.58;;
52124;SDS011;38119;52.710;6.398;2023-12-29T08:58:49;14.38;;;3.03;;
52124;SDS011;38119;52.710;6.398;2023-12-29T09:01:14;17.30;;;2.90;;
52124;SDS011;38119;52.710;6.398;2023-12-29T09:03:40;16.90;;;3.90;;
52124;SDS011;38119;52.710;6.398;2023-12-29T09:06:05;14.65;;;3.30;;
52124;SDS011;38119;52.710;6.398;2023-12-29T09:08:33;17.00;;;4.13;;
52124;SDS011;38119;52.710;6.398;2023-12-29T09:10:59;14.75;;;3.10;;
52124;SDS011;38119;52.710;6.398;2023-12-29T09:13:25;12.13;;;2.97;;
52124;SDS011;38119;52.710;6.398;2023-12-29T09:15:51;11.65;;;3.00;;
52124;SDS011;38119;52.710;6.398;2023-12-29T09:18:18;15.27;;;3.40;;
52124;SDS011;38119;52.710;6.398;2023-12-29T09:20:43;12.35;;;2.80;;
52124;SDS011;38119;52.710;6.398;2023-12-29T09:23:09;12.75;;;3.42;;
52124;SDS011;38119;52.710;6.398;2023-12-29T09:25:35;14.70;;;3.13;;
52124;SDS011;38119;52.710;6.398;2023-12-29T09:28:00;14.32;;;3.25;;
52124;SDS011;38119;52.710;6.398;2023-12-29T09:30:26;13.60;;;3.33;;
52124;SDS011;38119;52.710;6.398;2023-12-29T09:32:52;16.33;;;3.35;;
52124;SDS011;38119;52.710;6.398;2023-12-29T09:35:17;14.27;;;3.22;;
52124;SDS011;38119;52.710;6.398;2023-12-29T09:37:43;14.85;;;3.25;;
52124;SDS011;38119;52.710;6.398;2023-12-29T09:40:09;10.95;;;2.80;;
52124;SDS011;38119;52.710;6.398;2023-12-29T09:42:35;12.15;;;2.50;;
52124;SDS011;38119;52.710;6.398;2023-12-29T09:45:06;10.15;;;2.67;;
52124;SDS011;38119;52.710;6.398;2023-12-29T09:47:35;8.95;;;2.40;;
52124;SDS011;38119;52.710;6.398;2023-12-29T09:50:05;10.90;;;2.70;;
52124;SDS011;38119;52.710;6.398;2023-12-29T09:52:34;10.05;;;2.58;;
52124;SDS011;38119;52.710;6.398;2023-12-29T09:55:01;12.73;;;2.90;;
52124;SDS011;38119;52.710;6.398;2023-12-29T09:57:28;11.07;;;3.05;;
52124;SDS011;38119;52.710;6.398;2023-12-29T09:59:54;9.77;;;2.60;;
52124;SDS011;38119;52.710;6.398;2023-12-29T10:02:20;11.07;;;2.70;;
52124;SDS011;38119;52.710;6.398;2023-12-29T10:04:49;9.57;;;2.25;;
52124;SDS011;38119;52.710;6.398;2023-12-29T10:07:24;8.68;;;2.05;;
52124;SDS011;38119;52.710;6.398;2023-12-29T10:09:57;7.78;;;1.75;;
52124;SDS011;38119;52.710;6.398;2023-12-29T10:12:23;8.15;;;1.90;;
52124;SDS011;38119;52.710;6.398;2023-12-29T10:25:33;7.55;;;1.63;;
52124;SDS011;38119;52.710;6.398;2023-12-29T10:27:59;6.93;;;1.20;;
52124;SDS011;38119;52.710;6.398;2023-12-29T10:30:25;6.97;;;1.13;;
52124;SDS011;38119;52.710;6.398;2023-12-29T10:32:52;4.32;;;1.20;;
52124;SDS011;38119;52.710;6.398;2023-12-29T10:35:18;5.55;;;1.35;;
52124;SDS011;38119;52.710;6.398;2023-12-29T10:37:44;6.32;;;1.17;;
52124;SDS011;38119;52.710;6.398;2023-12-29T10:40:13;3.95;;;1.00;;
52124;SDS011;38119;52.710;6.398;2023-12-29T10:45:34;6.53;;;1.35;;
52124;SDS011;38119;52.710;6.398;2023-12-29T10:48:01;6.55;;;1.48;;
52124;SDS011;38119;52.710;6.398;2023-12-29T10:50:27;7.07;;;1.90;;
52124;SDS011;38119;52.710;6.398;2023-12-29T10:53:14;10.52;;;2.35;;
52124;SDS011;38119;52.710;6.398;2023-12-29T10:55:39;10.10;;;1.60;;
52124;SDS011;38119;52.710;6.398;2023-12-29T10:58:05;9.23;;;2.00;;
52124;SDS011;38119;52.710;6.398;2023-12-29T11:00:31;12.02;;;2.33;;
52124;SDS011;38119;52.710;6.398;2023-12-29T11:02:57;10.98;;;2.20;;
52124;SDS011;38119;52.710;6.398;2023-12-29T11:05:26;15.85;;;2.72;;
52124;SDS011;38119;52.710;6.398;2023-12-29T11:07:53;13.90;;;2.97;;
52124;SDS011;38119;52.710;6.398;2023-12-29T11:10:20;11.73;;;2.15;;
52124;SDS011;38119;52.710;6.398;2023-12-29T11:12:46;17.65;;;2.65;;
52124;SDS011;38119;52.710;6.398;2023-12-29T11:15:13;13.73;;;2.30;;
52124;SDS011;38119;52.710;6.398;2023-12-29T11:17:41;11.27;;;2.65;;
52124;SDS011;38119;52.710;6.398;2023-12-29T11:20:17;20.42;;;3.00;;
52124;SDS011;38119;52.710;6.398;2023-12-29T11:22:45;16.45;;;2.75;;
52124;SDS011;38119;52.710;6.398;2023-12-29T11:25:11;9.23;;;2.30;;
52124;SDS011;38119;52.710;6.398;2023-12-29T11:27:37;12.57;;;2.63;;
52124;SDS011;38119;52.710;6.398;2023-12-29T11:30:03;12.85;;;3.28;;
52124;SDS011;38119;52.710;6.398;2023-12-29T11:32:39;13.30;;;3.15;;
52124;SDS011;38119;52.710;6.398;2023-12-29T11:35:54;17.65;;;3.85;;
52124;SDS011;38119;52.710;6.398;2023-12-29T11:38:24;15.93;;;4.25;;
52124;SDS011;38119;52.710;6.398;2023-12-29T11:44:03;19.35;;;2.97;;
52124;SDS011;38119;52.710;6.398;2023-12-29T11:46:37;13.43;;;2.58;;
52124;SDS011;38119;52.710;6.398;2023-12-29T11:49:09;16.33;;;2.95;;
52124;SDS011;38119;52.710;6.398;2023-12-29T11:51:36;15.45;;;2.75;;
52124;SDS011;38119;52.710;6.398;2023-12-29T11:54:05;15.05;;;2.60;;
52124;SDS011;38119;52.710;6.398;2023-12-29T11:56:39;16.88;;;3.38;;
52124;SDS011;38119;52.710;6.398;2023-12-29T12:01:41;15.90;;;2.90;;
52124;SDS011;38119;52.710;6.398;2023-12-29T12:09:52;13.05;;;2.20;;
52124;SDS011;38119;52.710;6.398;2023-12-29T12:12:59;14.25;;;2.80;;
52124;SDS011;38119;52.710;6.398;2023-12-29T12:17:58;17.15;;;2.40;;
52124;SDS011;38119;52.710;6.398;2023-12-29T12:20:34;16.58;;;3.13;;
52124;SDS011;38119;52.710;6.398;2023-12-29T12:23:01;16.70;;;2.63;;
52124;SDS011;38119;52.710;6.398;2023-12-29T12:25:30;13.07;;;2.33;;
52124;SDS011;38119;52.710;6.398;2023-12-29T12:27:59;18.70;;;3.20;;
52124;SDS011;38119;52.710;6.398;2023-12-29T12:30:29;15.65;;;2.63;;
52124;SDS011;38119;52.710;6.398;2023-12-29T12:33:02;18.42;;;2.85;;
52124;SDS011;38119;52.710;6.398;2023-12-29T12:35:28;19.38;;;3.40;;
52124;SDS011;38119;52.710;6.398;2023-12-29T12:40:55;14.63;;;2.75;;
52124;SDS011;38119;52.710;6.398;2023-12-29T12:43:21;9.65;;;1.90;;
52124;SDS011;38119;52.710;6.398;2023-12-29T12:45:55;14.77;;;3.38;;
52124;SDS011;38119;52.710;6.398;2023-12-29T12:48:29;16.13;;;2.95;;
52124;SDS011;38119;52.710;6.398;2023-12-29T12:51:06;14.75;;;2.88;;
52124;SDS011;38119;52.710;6.398;2023-12-29T12:53:32;17.38;;;2.83;;
52124;SDS011;38119;52.710;6.398;2023-12-29T12:55:57;11.85;;;2.28;;
52124;SDS011;38119;52.710;6.398;2023-12-29T12:58:23;13.82;;;2.30;;
52124;SDS011;38119;52.710;6.398;2023-12-29T13:00:51;11.73;;;2.38;;
52124;SDS011;38119;52.710;6.398;2023-12-29T13:03:17;12.43;;;2.80;;
52124;SDS011;38119;52.710;6.398;2023-12-29T13:05:42;18.98;;;3.33;;
52124;SDS011;38119;52.710;6.398;2023-12-29T13:08:08;13.07;;;2.88;;
52124;SDS011;38119;52.710;6.398;2023-12-29T13:10:40;14.60;;;2.53;;
52124;SDS011;38119;52.710;6.398;2023-12-29T13:13:07;17.58;;;2.72;;
52124;SDS011;38119;52.710;6.398;2023-12-29T13:15:33;13.80;;;2.30;;
52124;SDS011;38119;52.710;6.398;2023-12-29T13:17:59;14.35;;;2.40;;
52124;SDS011;38119;52.710;6.398;2023-12-29T13:20:24;15.90;;;2.42;;
52124;SDS011;38119;52.710;6.398;2023-12-29T13:22:50;11.27;;;2.30;;
52124;SDS011;38119;52.710;6.398;2023-12-29T13:25:18;10.70;;;2.00;;
52124;SDS011;38119;52.710;6.398;2023-12-29T13:27:51;10.43;;;1.90;;
52124;SDS011;38119;52.710;6.398;2023-12-29T13:30:18;13.27;;;2.50;;
52124;SDS011;38119;52.710;6.398;2023-12-29T13:32:45;13.02;;;2.60;;
52124;SDS011;38119;52.710;6.398;2023-12-29T13:38:02;10.75;;;1.90;;
52124;SDS011;38119;52.710;6.398;2023-12-29T13:40:46;17.77;;;2.67;;
52124;SDS011;38119;52.710;6.398;2023-12-29T13:43:19;13.60;;;2.28;;
52124;SDS011;38119;52.710;6.398;2023-12-29T13:45:46;15.30;;;2.67;;
52124;SDS011;38119;52.710;6.398;2023-12-29T13:48:12;12.93;;;2.58;;
52124;SDS011;38119;52.710;6.398;2023-12-29T13:50:39;10.93;;;2.50;;
52124;SDS011;38119;52.710;6.398;2023-12-29T13:53:09;16.50;;;2.45;;
52124;SDS011;38119;52.710;6.398;2023-12-29T13:55:44;14.02;;;2.58;;
52124;SDS011;38119;52.710;6.398;2023-12-29T13:58:10;12.05;;;2.50;;
52124;SDS011;38119;52.710;6.398;2023-12-29T14:00:37;17.52;;;2.80;;
52124;SDS011;38119;52.710;6.398;2023-12-29T14:03:23;15.00;;;2.40;;
52124;SDS011;38119;52.710;6.398;2023-12-29T14:06:03;13.60;;;2.50;;
52124;SDS011;38119;52.710;6.398;2023-12-29T14:08:33;15.13;;;2.92;;
52124;SDS011;38119;52.710;6.398;2023-12-29T14:11:07;12.27;;;2.58;;
52124;SDS011;38119;52.710;6.398;2023-12-29T14:13:45;12.55;;;2.10;;
52124;SDS011;38119;52.710;6.398;2023-12-29T14:16:14;17.00;;;2.28;;
52124;SDS011;38119;52.710;6.398;2023-12-29T14:21:20;14.15;;;2.83;;
52124;SDS011;38119;52.710;6.398;2023-12-29T14:26:37;12.82;;;2.53;;
52124;SDS011;38119;52.710;6.398;2023-12-29T14:29:08;15.70;;;2.47;;
52124;SDS011;38119;52.710;6.398;2023-12-29T14:31:39;16.73;;;2.40;;
52124;SDS011;38119;52.710;6.398;2023-12-29T14:34:06;18.08;;;2.70;;
52124;SDS011;38119;52.710;6.398;2023-12-29T14:36:32;15.00;;;3.00;;
52124;SDS011;38119;52.710;6.398;2023-12-29T14:38:58;14.82;;;2.53;;
52124;SDS011;38119;52.710;6.398;2023-12-29T14:41:24;14.80;;;2.35;;
52124;SDS011;38119;52.710;6.398;2023-12-29T14:43:50;16.30;;;2.65;;
52124;SDS011;38119;52.710;6.398;2023-12-29T14:46:16;12.77;;;2.60;;
52124;SDS011;38119;52.710;6.398;2023-12-29T14:48:41;13.07;;;2.58;;
52124;SDS011;38119;52.710;6.398;2023-12-29T14:51:08;10.77;;;2.38;;
52124;SDS011;38119;52.710;6.398;2023-12-29T14:53:33;20.35;;;2.90;;
52124;SDS011;38119;52.710;6.398;2023-12-29T14:55:59;14.85;;;3.00;;
52124;SDS011;38119;52.710;6.398;2023-12-29T14:58:25;13.70;;;2.90;;
52124;SDS011;38119;52.710;6.398;2023-12-29T15:00:50;14.77;;;2.80;;
52124;SDS011;38119;52.710;6.398;2023-12-29T15:03:16;16.45;;;3.35;;
52124;SDS011;38119;52.710;6.398;2023-12-29T15:05:45;17.98;;;3.00;;
52124;SDS011;38119;52.710;6.398;2023-12-29T15:08:11;16.42;;;2.90;;
52124;SDS011;38119;52.710;6.398;2023-12-29T15:10:37;20.10;;;3.45;;
52124;SDS011;38119;52.710;6.398;2023-12-29T15:13:02;15.98;;;2.90;;
52124;SDS011;38119;52.710;6.398;2023-12-29T15:15:29;19.85;;;2.92;;
52124;SDS011;38119;52.710;6.398;2023-12-29T15:17:54;15.55;;;2.60;;